首页
METAR-TAF:

METAR-TAF

机场 :

Scatsta, 设德兰群岛, 苏格兰

纬度: 60-26N, 经度: 001-18W, 海拔: 22米

当前天气观测

该预报发布于20分钟前的07:50 UTC
风速9节,风向西转西北
温度 1°C
湿度 69%
气压 1006 hPa
能见度10公里或以上
少量云层高于1600英尺, 积雨云.
附近有阵雨

METAR: EGPM 030750Z 29009KT 9999 VCSH FEW016CB 01/M04 Q1006 NOSIG

时间: 09:10 (08:10 UTC)

预报

该预报发布于3小时和15分钟前的04:55 UTC
预报有效从03日的 06点(UTC)到 03日的 15点(UTC)
风速14节,风向西北
能见度10公里或以上
散云层高于3000英尺
几率 30% :
短暂存在
从 03日的 06点(UTC)到 03日的 15点(UTC)
能見度: 1500
多云层高于600英尺
多云层高于1500英尺, 积雨云.
阵雪

TAF: EGPM 030455Z 0306/0315 31014KT 9999 SCT030 PROB30 TEMPO 0306/0315 1500 SHSN BKN006 BKN015CB

超过4000个机场的气象观测和天气预报(METAR&TAF报告)。

可查询的气象台以黄色和红色小点在地图上表示。

将鼠标移到小点上方,可查看气象台名称。

然后点击查看天气观测和预报。

如需切换地图:点击带黑十字的绿色按钮放大地图;点击带横线的绿色按钮缩小地图;或者点击绿色箭头查看邻近地区的地图。


METAR-TAF: